Walsall, United Kingdom
Current Conditions -  °F | °C
As of 2:20 AM on Friday 19 Dec 2014 (Local Time) from EGBB Reporting Station
Moderate Rain Moderate Rain  
Wind Chill: 54°   Ceiling: 1500
Heat Index: 54°   Visibility: 0.81mi
Dew Point: 52°   Wind: 10mph
Humidity: 94%   Direction: 220°SW
Pressure: 29.68"   Gusts: NA
Location:  52.59°N, 1.98°W
Report Text: EGBB 190220Z AUTO 22009KT 180V250 1300 RA SCT010/// BKN015/// OVC020/// 12/11 Q1005 RERA
Loading
Personal Weather Stations






























Interactive Weather Map New forecast layout! Learn more

10-Day Weather Forecast

Advertisements
Track Severe Weather on mobile